createdAt,value
2023-02-28T00:05:34.703Z,2.53
2023-02-28T00:12:16.970Z,2.97
2023-02-28T00:18:59.251Z,2.85
2023-02-28T00:25:41.552Z,3.60
2023-02-28T00:32:23.936Z,3.60
2023-02-28T00:39:06.239Z,3.60
2023-02-28T00:45:48.621Z,3.30
2023-02-28T00:52:31.326Z,3.53
2023-02-28T00:59:15.043Z,2.95
2023-02-28T01:05:57.368Z,3.20
2023-02-28T01:12:39.774Z,3.40
2023-02-28T01:19:22.092Z,3.20
2023-02-28T01:26:06.944Z,3.22
2023-02-28T01:32:49.281Z,3.05
2023-02-28T01:39:31.639Z,3.25
2023-02-28T01:46:14.894Z,3.50
2023-02-28T01:53:01.655Z,3.50
2023-02-28T01:59:47.291Z,4.07
2023-02-28T02:06:39.637Z,4.25
2023-02-28T02:13:56.216Z,4.13
2023-02-28T02:21:19.241Z,4.50
2023-02-28T02:28:40.248Z,3.90
2023-02-28T02:35:44.247Z,4.43
2023-02-28T02:42:35.742Z,3.85
2023-02-28T02:49:34.768Z,3.88
2023-02-28T02:56:24.633Z,3.50
2023-02-28T03:03:09.120Z,4.22
2023-02-28T03:09:56.969Z,4.10
2023-02-28T03:17:10.041Z,3.83
2023-02-28T03:24:13.190Z,3.70
2023-02-28T03:31:18.923Z,3.63
2023-02-28T03:38:08.306Z,4.10
2023-02-28T03:45:01.516Z,4.18
2023-02-28T03:51:46.888Z,4.45
2023-02-28T03:58:48.056Z,4.70
2023-02-28T04:05:31.072Z,4.60
2023-02-28T04:12:13.558Z,4.80
2023-02-28T04:19:02.873Z,4.30
2023-02-28T04:25:45.161Z,4.18
2023-02-28T04:32:27.506Z,4.00
2023-02-28T04:39:10.691Z,4.55
2023-02-28T04:45:53.146Z,4.15
2023-02-28T04:52:35.461Z,4.47
2023-02-28T04:59:18.201Z,4.82
2023-02-28T05:06:00.502Z,4.65
2023-02-28T05:12:42.768Z,4.63
2023-02-28T05:19:25.050Z,4.78
2023-02-28T05:26:07.355Z,4.78
2023-02-28T05:32:52.523Z,5.00
2023-02-28T05:39:34.830Z,4.65
2023-02-28T05:46:17.575Z,4.82
2023-02-28T05:52:59.847Z,5.38
2023-02-28T05:59:42.270Z,4.97
2023-02-28T06:06:24.593Z,5.35
2023-02-28T06:13:07.152Z,5.47
2023-02-28T06:19:49.529Z,5.10
2023-02-28T06:26:32.072Z,5.10
2023-02-28T06:33:14.390Z,5.30
2023-02-28T06:39:57.074Z,5.82
2023-02-28T06:46:44.485Z,5.53
2023-02-28T06:53:26.795Z,5.47
2023-02-28T07:00:10.959Z,5.75
2023-02-28T07:06:53.282Z,5.78
2023-02-28T07:13:36.069Z,5.78
2023-02-28T07:20:18.530Z,5.47
2023-02-28T07:27:01.846Z,5.47
2023-02-28T07:33:44.745Z,5.75
2023-02-28T07:40:27.854Z,5.93
2023-02-28T07:47:11.002Z,5.72
2023-02-28T07:53:53.283Z,5.60
2023-02-28T08:00:35.889Z,6.22
2023-02-28T08:07:19.382Z,5.85
2023-02-28T08:14:01.825Z,5.43
2023-02-28T08:20:44.375Z,6.78
2023-02-28T08:27:26.747Z,6.28
2023-02-28T08:34:11.753Z,6.90
2023-02-28T08:41:02.068Z,6.70
2023-02-28T08:47:44.372Z,6.20
2023-02-28T08:54:26.775Z,7.22
2023-02-28T09:01:22.413Z,7.20
2023-02-28T09:08:04.976Z,7.20
2023-02-28T09:14:47.223Z,7.80
2023-02-28T09:21:29.991Z,8.35
2023-02-28T09:28:12.560Z,7.57
2023-02-28T09:34:55.086Z,7.38
2023-02-28T09:41:49.468Z,6.82
2023-02-28T09:48:41.252Z,7.63
2023-02-28T09:55:46.262Z,7.35
2023-02-28T10:02:37.570Z,7.63
2023-02-28T10:09:31.969Z,7.90
2023-02-28T10:16:21.052Z,7.35
2023-02-28T10:23:29.011Z,7.43
2023-02-28T10:30:14.698Z,8.07
2023-02-28T10:37:08.165Z,8.55
2023-02-28T10:43:50.493Z,8.52
2023-02-28T10:50:47.852Z,7.80
2023-02-28T10:57:31.781Z,8.63
2023-02-28T11:04:30.490Z,8.88
2023-02-28T11:11:13.078Z,7.78
2023-02-28T11:17:57.021Z,7.80
2023-02-28T11:24:44.868Z,7.65
2023-02-28T11:31:30.911Z,7.68
2023-02-28T11:38:14.088Z,7.90
2023-02-28T11:45:27.361Z,8.18
2023-02-28T11:52:34.581Z,7.85
2023-02-28T11:59:34.916Z,7.85
2023-02-28T12:06:31.493Z,7.55
2023-02-28T12:13:36.927Z,7.93
2023-02-28T12:20:45.462Z,8.45
2023-02-28T12:27:32.532Z,7.53
2023-02-28T12:34:21.409Z,7.38
2023-02-28T12:41:09.873Z,8.45
2023-02-28T12:47:59.101Z,7.68
2023-02-28T12:55:04.860Z,7.88
2023-02-28T13:02:19.710Z,7.25
2023-02-28T13:09:05.925Z,7.15
2023-02-28T13:16:08.787Z,7.25
2023-02-28T13:22:54.404Z,7.15
2023-02-28T13:29:39.674Z,7.85
2023-02-28T13:36:23.697Z,8.25
2023-02-28T13:43:09.962Z,7.70
2023-02-28T13:49:52.886Z,7.53
2023-02-28T13:56:50.501Z,6.90
2023-02-28T14:03:44.739Z,7.13
2023-02-28T14:10:33.323Z,7.75
2023-02-28T14:17:17.597Z,8.07
2023-02-28T14:24:30.006Z,7.68
2023-02-28T14:31:24.436Z,7.40
2023-02-28T14:38:14.458Z,7.60
2023-02-28T14:44:57.502Z,6.70
2023-02-28T14:51:39.920Z,7.13
2023-02-28T14:58:28.338Z,7.88
2023-02-28T15:05:10.597Z,7.55
2023-02-28T15:11:52.979Z,7.65
2023-02-28T15:18:56.643Z,8.38
2023-02-28T15:25:40.820Z,8.00
2023-02-28T15:32:27.885Z,8.27
2023-02-28T15:39:30.834Z,8.52
2023-02-28T15:46:15.164Z,7.63
2023-02-28T15:52:58.877Z,8.32
2023-02-28T15:59:51.877Z,8.50
2023-02-28T16:06:39.232Z,8.02
2023-02-28T16:13:21.537Z,8.30
2023-02-28T16:20:27.252Z,9.43
2023-02-28T16:27:33.878Z,8.40
2023-02-28T16:34:16.212Z,7.80
2023-02-28T16:41:01.471Z,8.15
2023-02-28T16:47:43.785Z,8.80
2023-02-28T16:54:26.260Z,8.80
2023-02-28T17:01:08.940Z,7.60
2023-02-28T17:07:51.698Z,8.85
2023-02-28T17:14:34.343Z,9.20
2023-02-28T17:21:17.586Z,9.63
2023-02-28T17:27:59.926Z,9.95
2023-02-28T17:34:42.270Z,10.75
2023-02-28T17:41:25.198Z,10.32
2023-02-28T17:48:09.922Z,9.65
2023-02-28T17:54:52.246Z,9.75
2023-02-28T18:01:34.606Z,10.27
2023-02-28T18:08:17.272Z,11.05
2023-02-28T18:15:00.130Z,10.90
2023-02-28T18:21:46.516Z,11.48
2023-02-28T18:28:28.957Z,11.65
2023-02-28T18:35:11.305Z,12.68
2023-02-28T18:41:53.614Z,12.32
2023-02-28T18:48:36.661Z,12.05
2023-02-28T18:55:19.085Z,11.82
2023-02-28T19:02:01.476Z,12.68
2023-02-28T19:08:44.074Z,13.20
2023-02-28T19:15:27.012Z,17.42
2023-02-28T19:22:10.069Z,13.85
2023-02-28T19:28:52.998Z,14.77
2023-02-28T19:35:35.649Z,14.75
2023-02-28T19:42:18.889Z,16.00
2023-02-28T19:49:01.223Z,14.85
2023-02-28T19:55:46.220Z,16.85
2023-02-28T20:02:28.541Z,20.30
2023-02-28T20:09:10.867Z,18.02
2023-02-28T20:15:53.150Z,15.00
2023-02-28T20:22:38.244Z,15.38
2023-02-28T20:29:20.864Z,13.82
2023-02-28T20:36:05.490Z,16.45
2023-02-28T20:42:47.798Z,14.95
2023-02-28T20:49:30.145Z,15.63
2023-02-28T20:56:18.303Z,14.27
2023-02-28T21:03:00.698Z,14.20
2023-02-28T21:09:43.121Z,13.80
2023-02-28T21:16:27.171Z,14.07
2023-02-28T21:23:09.560Z,13.82
2023-02-28T21:29:51.885Z,14.80
2023-02-28T21:36:40.432Z,13.77
2023-02-28T21:43:22.841Z,15.13
2023-02-28T21:50:05.536Z,13.93
2023-02-28T21:56:50.439Z,15.63
2023-02-28T22:03:32.956Z,15.63
2023-02-28T22:10:15.658Z,16.10
2023-02-28T22:16:58.277Z,16.33
2023-02-28T22:23:42.208Z,17.38
2023-02-28T22:30:24.726Z,18.23
2023-02-28T22:37:07.065Z,16.33
2023-02-28T22:43:54.624Z,17.88
2023-02-28T22:50:37.150Z,17.38
2023-02-28T22:57:19.597Z,16.17
2023-02-28T23:04:02.675Z,21.30
2023-02-28T23:10:45.060Z,15.95
2023-02-28T23:17:28.021Z,15.88
2023-02-28T23:24:13.681Z,13.68
2023-02-28T23:30:56.021Z,14.25
2023-02-28T23:37:39.667Z,13.43
2023-02-28T23:44:22.045Z,13.55
2023-02-28T23:51:14.665Z,13.73
2023-02-28T23:57:57.231Z,12.88
